Weather reports worldwide

Advertisment
Matera, Italy (16314): temperature & dewpoint: 15.01.2018 04:00:00 - 21.01.2018 04:00:00 (CET)Matera, Italy (16314): wind speed: 15.01.2018 04:00:00 - 21.01.2018 04:00:00 (CET)Matera, Italy (16314): wind direction: 15.01.2018 04:00:00 - 21.01.2018 04:00:00 (CET)Matera, Italy (16314): reduced air pressure: 15.01.2018 04:00:00 - 21.01.2018 04:00:00 (CET)Matera, Italy (16314): precipitation: 15.01.2018 04:00:00 - 21.01.2018 04:00:00 (CET)
Date & Time tt [°C] td [°C] ff [km/h] ff [kn] dd ppp [hPa] rr [mm]
21.01.2018 04:00:00 - - - - - - -
21.01.2018 03:00:00 6,6 6,6 16 9 WSW 1012,0 -
21.01.2018 02:00:00 6,5 6,5 18 10 SW 1012,3 -
21.01.2018 01:00:00 6,3 6,2 13 7 SW 1013,0 -
21.01.2018 00:00:00 5,8 5,4 18 10 SW 1014,1 -
20.01.2018 23:00:00 5,5 4,8 21 11 SW 1014,7 -
20.01.2018 22:00:00 5,8 4,1 11 6 SW 1015,2 -
20.01.2018 21:00:00 6,4 4,5 4 2 W 1015,4 -
20.01.2018 20:00:00 6,5 4,8 11 6 NNE 1015,7 -
20.01.2018 19:00:00 6,6 5,4 9 5 N 1015,4 0,0
20.01.2018 18:00:00 6,9 5,2 8 4 N 1015,0 -
20.01.2018 17:00:00 7,9 4,6 5 3 N 1014,6 -
20.01.2018 16:00:00 8,6 6,4 21 11 NE 1014,3 -
20.01.2018 15:00:00 8,2 6,8 21 11 ENE 1014,5 -
20.01.2018 14:00:00 8,5 7,1 24 13 ENE 1014,3 -
20.01.2018 13:00:00 10,4 7,8 28 15 NNE 1013,9 0,0
20.01.2018 12:00:00 10,9 6,4 22 12 NNE 1013,8 -
20.01.2018 11:00:00 12,6 6,4 9 5 NW 1012,9 -
20.01.2018 10:00:00 11,2 7,1 9 5 NNW 1013,8 -
20.01.2018 09:00:00 9,2 6,3 9 5 WNW 1014,1 -
20.01.2018 08:00:00 8,6 5,5 9 5 NW 1014,0 -
20.01.2018 07:00:00 8,8 5,7 5 3 NW 1013,6 0,0
20.01.2018 06:00:00 8,5 5,7 13 7 W 1013,9 -
20.01.2018 05:00:00 8,7 6,1 8 4 WSW 1013,5 -
20.01.2018 04:00:00 8,9 6,1 5 3 WSW 1013,5 -
20.01.2018 03:00:00 8,7 5,6 13 7 WSW 1014,1 -
20.01.2018 02:00:00 8,6 5,5 15 8 W 1014,6 -
20.01.2018 01:00:00 8,6 4,9 11 6 W 1014,8 -
20.01.2018 00:00:00 9,1 5,4 9 5 W 1014,8 -
19.01.2018 23:00:00 8,9 5,2 15 8 W 1015,4 -
19.01.2018 22:00:00 8,9 5,0 15 8 W 1014,5 -
19.01.2018 21:00:00 8,9 5,8 11 6 WSW 1014,9 -
19.01.2018 20:00:00 8,6 6,4 13 7 SSW 1015,1 -
19.01.2018 19:00:00 8,6 6,9 8 4 WSW 1015,0 0,0
19.01.2018 18:00:00 9,1 7,4 11 6 SSW 1015,1 -
19.01.2018 17:00:00 9,8 8,1 16 9 S 1014,8 -
19.01.2018 16:00:00 11,4 6,1 16 9 SW 1014,3 -
19.01.2018 15:00:00 12,0 5,3 16 9 WSW 1014,6 -
19.01.2018 14:00:00 12,4 4,8 16 9 WSW 1014,6 -
19.01.2018 13:00:00 12,7 5,1 8 4 SSW 1014,9 0,0
19.01.2018 12:00:00 11,8 5,6 15 8 SW 1015,9 -
19.01.2018 11:00:00 10,7 4,5 18 10 SW 1016,8 -
19.01.2018 10:00:00 9,9 4,6 18 10 WSW 1016,9 -
19.01.2018 09:00:00 8,1 3,9 18 10 W 1017,2 -
19.01.2018 08:00:00 5,9 3,4 18 10 W 1017,6 -
19.01.2018 07:00:00 4,8 1,8 15 8 W 1018,1 0,0
19.01.2018 06:00:00 5,2 2,0 11 6 W 1018,3 -
19.01.2018 05:00:00 5,3 1,7 9 5 SW 1018,3 -
19.01.2018 04:00:00 5,0 1,4 15 8 W 1018,2 -
19.01.2018 03:00:00 4,4 0,3 21 11 W 1019,0 -
19.01.2018 02:00:00 5,4 0,1 13 7 W 1019,1 -
19.01.2018 01:00:00 4,6 -0,9 9 5 W 1019,8 0,0
19.01.2018 00:00:00 5,7 -1,1 8 4 W 1020,2 -
18.01.2018 23:00:00 3,9 -3,3 11 6 W 1020,6 -
18.01.2018 22:00:00 4,5 -5,1 8 4 W 1020,3 -
18.01.2018 21:00:00 4,3 -6,1 13 7 W 1020,8 -
18.01.2018 20:00:00 4,6 -6,2 11 6 W 1021,4 -
18.01.2018 19:00:00 5,4 -7,6 13 7 WSW 1021,2 0,0
18.01.2018 18:00:00 6,4 -9,2 18 10 SW 1021,3 -
18.01.2018 17:00:00 8,3 -9,8 13 7 W 1020,9 -
18.01.2018 16:00:00 10,7 -10,9 5 3 NW 1020,1 -
18.01.2018 15:00:00 10,2 -9,6 18 10 N 1021,0 -
18.01.2018 14:00:00 9,6 -11,2 18 10 N 1021,5 -
18.01.2018 13:00:00 9,1 -10,6 29 16 N 1022,0 0,0
18.01.2018 12:00:00 8,2 -8,5 28 15 N 1022,5 -
18.01.2018 11:00:00 7,3 -5,2 29 16 N 1022,7 -
18.01.2018 10:00:00 5,6 -6,4 31 17 N 1022,3 -
18.01.2018 09:00:00 3,8 -5,8 29 16 N 1021,8 -
18.01.2018 08:00:00 2,5 -5,0 28 15 N 1021,1 -
18.01.2018 07:00:00 2,7 -3,7 28 15 N 1020,0 -
18.01.2018 06:00:00 2,7 -2,7 34 18 NNE 1019,0 -
18.01.2018 05:00:00 2,5 -1,7 34 18 N 1018,2 -
18.01.2018 04:00:00 2,0 0,2 35 19 N 1017,8 -
18.01.2018 03:00:00 2,3 -0,2 48 26 N 1017,1 -
18.01.2018 02:00:00 2,3 0,5 41 22 N 1015,7 -
18.01.2018 01:00:00 2,4 1,1 52 28 NNE 1014,5 -
18.01.2018 00:00:00 2,4 1,5 44 24 NNE 1014,4 -
17.01.2018 23:00:00 2,5 1,2 50 27 NE 1012,2 -
17.01.2018 22:00:00 5,8 1,8 35 19 N 1009,6 -
17.01.2018 21:00:00 6,4 1,1 37 20 NNE 1008,8 -
17.01.2018 20:00:00 6,2 -0,6 42 23 NNE 1007,5 -
17.01.2018 19:00:00 5,9 2,5 61 33 N 1007,5 -
17.01.2018 18:00:00 6,2 4,5 57 31 NNE 1006,8 -
17.01.2018 17:00:00 9,7 6,4 39 21 N 1003,5 -
17.01.2018 16:00:00 13,1 4,4 41 22 NW 1001,5 -
17.01.2018 15:00:00 13,7 5,0 44 24 NNW 1001,4 -
17.01.2018 14:00:00 14,3 5,3 29 16 NNW 1001,3 -
17.01.2018 13:00:00 15,5 6,7 37 20 NW 1001,7 0,0
17.01.2018 12:00:00 15,3 6,8 50 27 NNW 1003,8 -
17.01.2018 11:00:00 16,1 7,0 21 11 NW 1004,7 -
17.01.2018 10:00:00 14,3 7,3 21 11 NW 1005,7 -
17.01.2018 09:00:00 12,8 6,5 26 14 NW 1006,6 -
17.01.2018 08:00:00 11,7 5,7 28 15 NW 1006,5 -
17.01.2018 07:00:00 11,2 6,3 39 21 WNW 1006,7 0,0
17.01.2018 06:00:00 10,4 6,5 13 7 SW 1008,3 -
17.01.2018 05:00:00 9,8 6,1 21 11 W 1009,1 -
17.01.2018 04:00:00 9,5 6,5 16 9 W 1009,8 -
17.01.2018 03:00:00 8,0 5,1 16 9 W 1011,5 -
17.01.2018 02:00:00 8,3 5,2 9 5 SW 1012,5 -
17.01.2018 01:00:00 7,7 4,6 13 7 W 1013,0 0,0
17.01.2018 00:00:00 7,8 4,5 9 5 WSW 1014,0 -
16.01.2018 23:00:00 7,4 3,8 13 7 WSW 1014,7 -
16.01.2018 22:00:00 7,4 4,1 15 8 W 1015,0 -
16.01.2018 21:00:00 7,5 3,9 21 11 W 1015,2 -
16.01.2018 20:00:00 7,1 3,7 15 8 W 1015,7 -
16.01.2018 19:00:00 6,7 3,6 9 5 WNW 1015,9 -
16.01.2018 18:00:00 8,3 4,3 16 9 W 1015,8 -
16.01.2018 17:00:00 9,8 3,7 15 8 WNW 1015,8 -
16.01.2018 16:00:00 11,6 2,8 29 16 NW 1015,4 -
16.01.2018 15:00:00 13,5 3,7 34 18 NW 1015,2 -
16.01.2018 14:00:00 13,0 4,6 8 4 NW 1015,9 -
16.01.2018 13:00:00 12,4 5,0 15 8 W 1016,9 0,0
16.01.2018 12:00:00 11,3 4,7 24 13 W 1018,3 -
16.01.2018 11:00:00 10,4 5,1 16 9 WSW 1019,6 -
16.01.2018 10:00:00 8,9 5,4 16 9 W 1020,0 -
16.01.2018 09:00:00 7,3 4,9 18 10 W 1020,6 -
16.01.2018 08:00:00 5,2 3,3 16 9 W 1021,0 -
16.01.2018 07:00:00 5,2 3,0 13 7 WNW 1021,0 0,0
16.01.2018 06:00:00 5,8 4,3 16 9 W 1021,5 -
16.01.2018 05:00:00 5,3 3,3 16 9 WNW 1021,8 -
16.01.2018 04:00:00 5,7 3,7 13 7 W 1022,2 -
16.01.2018 03:00:00 5,4 4,2 15 8 WNW 1023,4 -
16.01.2018 02:00:00 5,5 4,9 15 8 WNW 1023,8 -
16.01.2018 01:00:00 5,1 4,2 11 6 W 1024,0 0,0
16.01.2018 00:00:00 5,9 4,5 11 6 WNW 1024,3 -
15.01.2018 23:00:00 7,3 6,5 5 3 N 1024,4 -
15.01.2018 22:00:00 6,8 5,4 9 5 NW 1024,4 -
15.01.2018 21:00:00 7,5 6,6 4 2 N 1024,3 -
15.01.2018 20:00:00 8,1 7,6 9 5 WSW 1023,8 -
15.01.2018 19:00:00 8,1 7,6 9 5 SW 1024,0 0,0
15.01.2018 18:00:00 8,2 7,0 8 4 SW 1024,0 -
15.01.2018 17:00:00 9,0 6,4 9 5 SW 1023,8 -
15.01.2018 16:00:00 11,0 7,1 8 4 NNW 1023,3 -
15.01.2018 15:00:00 11,3 5,5 13 7 N 1023,1 -
15.01.2018 14:00:00 12,7 4,8 15 8 W 1023,0 -
15.01.2018 13:00:00 12,4 5,5 9 5 W 1023,6 0,0
15.01.2018 12:00:00 11,9 5,7 11 6 W 1024,3 -
15.01.2018 11:00:00 9,8 5,1 11 6 W 1025,3 -
15.01.2018 10:00:00 9,3 5,6 16 9 W 1025,3 -
15.01.2018 09:00:00 7,6 4,9 9 5 W 1025,4 -
15.01.2018 08:00:00 6,9 3,6 9 5 WSW 1025,1 -
15.01.2018 07:00:00 6,7 3,6 0 0 N 1025,1 0,0
15.01.2018 06:00:00 6,2 3,0 13 7 NW 1024,7 -
15.01.2018 05:00:00 7,2 4,3 8 4 N 1024,6 -
15.01.2018 04:00:00 6,5 5,4 9 5 N 1025,0 -

tt = temperature
td = dewpoint
ff = wind speed
dd = wind direction
ppp = reduced air pressure
rr = precipitation

Next stations